Time;durP1;ratioP1;P1;durP2;ratioP2;P2;SDS_P1;SDS_P2;PMS_P1;PMS_P2;Temp;Humidity;BMP_temperature;BMP_pressure;BME280_temperature;BME280_humidity;BME280_pressure;Samples;Min_cycle;Max_cycle;Signal;HPM_P1;HPM_P2
2022/05/11 00:01:35;;;;;;;10.57;7.60;;;;;;;16.49;100.00;96306.63;5040903;28;20036;-78
2022/05/11 00:04:03;;;;;;;13.18;8.60;;;;;;;16.27;100.00;96305.88;5035542;28;20028;-77
2022/05/11 00:06:29;;;;;;;10.98;7.90;;;;;;;16.30;100.00;96302.00;5034276;28;20041;-78
2022/05/11 00:08:56;;;;;;;11.57;8.25;;;;;;;16.35;100.00;96308.38;5042801;28;20026;-77
2022/05/11 00:11:26;;;;;;;20.17;8.45;;;;;;;16.31;100.00;96307.13;5045855;28;20030;-77
2022/05/11 00:13:52;;;;;;;12.20;9.68;;;;;;;16.25;100.00;96299.94;5025352;28;20041;-77
2022/05/11 00:16:18;;;;;;;11.68;9.13;;;;;;;16.19;100.00;96306.00;5039332;28;20667;-77
2022/05/11 00:18:43;;;;;;;10.48;8.93;;;;;;;16.08;100.00;96299.41;5041893;28;20044;-77
2022/05/11 00:21:10;;;;;;;13.02;9.60;;;;;;;16.18;100.00;96296.41;5025664;28;20144;-78
2022/05/11 00:23:36;;;;;;;12.32;8.43;;;;;;;16.13;100.00;96296.16;5043266;28;20024;-78
2022/05/11 00:26:02;;;;;;;10.68;9.00;;;;;;;16.13;100.00;96302.31;5034101;28;20036;-77
2022/05/11 00:28:27;;;;;;;11.30;9.55;;;;;;;15.99;100.00;96298.72;5041822;28;20025;-77
2022/05/11 00:30:53;;;;;;;11.90;9.50;;;;;;;16.05;100.00;96293.66;5015385;28;20404;-78
2022/05/11 00:33:20;;;;;;;10.30;8.50;;;;;;;15.99;100.00;96290.75;5029399;28;20020;-78
2022/05/11 00:35:47;;;;;;;10.85;9.40;;;;;;;15.75;100.00;96299.94;5045816;28;20033;-78
2022/05/11 00:38:15;;;;;;;9.88;8.68;;;;;;;15.78;100.00;96296.09;5041214;28;20025;-78
2022/05/11 00:40:44;;;;;;;13.57;9.07;;;;;;;15.73;100.00;96301.16;5020338;28;20030;-78
2022/05/11 00:43:10;;;;;;;11.30;10.10;;;;;;;15.67;100.00;96297.41;5024296;28;20033;-77
2022/05/11 00:45:48;;;;;;;10.63;8.63;;;;;;;15.66;100.00;96300.22;5028329;28;20454;-77
2022/05/11 00:51:10;;;;;;;10.07;8.73;;;;;;;15.54;100.00;96291.97;5024254;28;20038;-78
2022/05/11 00:53:36;;;;;;;11.40;8.77;;;;;;;15.51;100.00;96292.34;5026334;28;20033;-77
2022/05/11 00:56:03;;;;;;;11.10;9.13;;;;;;;15.48;100.00;96292.69;5030970;28;20052;-77
2022/05/11 00:58:46;;;;;;;10.02;8.93;;;;;;;15.43;100.00;96289.81;5040082;28;20033;-77
2022/05/11 01:01:12;;;;;;;12.80;9.43;;;;;;;15.37;100.00;96290.56;5012985;28;20090;-76
2022/05/11 01:03:51;;;;;;;12.05;8.82;;;;;;;15.29;100.00;96294.97;5026968;28;20026;-77
2022/05/11 01:06:19;;;;;;;13.73;10.38;;;;;;;15.21;100.00;96299.53;5033220;28;20066;-77
2022/05/11 01:08:44;;;;;;;11.07;9.03;;;;;;;15.23;100.00;96282.47;5041366;28;20550;-77
2022/05/11 01:11:11;;;;;;;11.50;9.40;;;;;;;15.16;100.00;96286.06;5041970;28;20108;-77
2022/05/11 01:13:39;;;;;;;11.70;8.90;;;;;;;15.07;100.00;96288.81;5031000;28;20052;-78
2022/05/11 01:16:05;;;;;;;10.03;8.70;;;;;;;15.01;100.00;96280.78;5018672;28;20048;-78
2022/05/11 01:18:31;;;;;;;15.47;9.20;;;;;;;14.95;100.00;96286.81;5043283;28;20041;-78
2022/05/11 01:20:58;;;;;;;11.57;9.33;;;;;;;14.90;100.00;96282.06;5040349;28;20033;-77
2022/05/11 01:23:48;;;;;;;11.87;9.20;;;;;;;14.83;100.00;96283.81;5029485;28;20041;-78
2022/05/11 01:26:16;;;;;;;13.03;9.07;;;;;;;14.77;100.00;96282.72;5032077;28;20022;-78
2022/05/11 01:28:45;;;;;;;10.97;9.43;;;;;;;14.78;100.00;96283.53;5043565;28;20483;-77
2022/05/11 01:31:13;;;;;;;10.50;9.27;;;;;;;14.72;100.00;96282.47;5038357;28;20026;-77
2022/05/11 01:33:44;;;;;;;12.17;8.97;;;;;;;14.75;100.00;96282.06;5038725;28;20105;-77
2022/05/11 01:36:19;;;;;;;10.80;9.70;;;;;;;14.75;100.00;96282.06;5035091;28;20026;-78
2022/05/11 01:38:47;;;;;;;11.47;10.17;;;;;;;14.71;100.00;96283.44;5030857;28;20037;-76
2022/05/11 01:41:31;;;;;;;11.27;8.67;;;;;;;14.69;100.00;96288.13;5045272;28;20025;-77
2022/05/11 01:43:58;;;;;;;10.97;9.67;;;;;;;14.57;100.00;96285.09;5042107;28;20419;-77
2022/05/11 01:46:24;;;;;;;11.80;10.03;;;;;;;14.52;100.00;96290.13;5039921;28;20501;-78
2022/05/11 01:48:50;;;;;;;11.07;9.27;;;;;;;14.46;100.00;96297.97;5034169;28;20044;-77
2022/05/11 01:51:17;;;;;;;11.17;9.80;;;;;;;14.39;100.00;96298.66;5021570;28;20038;-77
2022/05/11 01:53:44;;;;;;;12.20;9.70;;;;;;;14.35;100.00;96294.75;5040505;28;20033;-78
2022/05/11 01:56:13;;;;;;;12.00;10.80;;;;;;;14.23;100.00;96285.59;5038534;28;20064;-77
2022/05/11 01:58:39;;;;;;;14.13;9.77;;;;;;;14.31;100.00;96288.16;5041262;28;20067;-77
2022/05/11 02:01:05;;;;;;;11.73;9.80;;;;;;;14.35;100.00;96285.97;5047320;28;20100;-77
2022/05/11 02:03:31;;;;;;;10.67;9.27;;;;;;;14.38;100.00;96283.81;5039303;28;20048;-77
2022/05/11 02:08:44;;;;;;;12.27;9.83;;;;;;;14.41;100.00;96289.72;5046648;28;20037;-77
2022/05/11 02:11:11;;;;;;;12.30;9.20;;;;;;;14.45;100.00;96288.34;5041990;28;20025;-77
2022/05/11 02:13:36;;;;;;;11.47;8.60;;;;;;;14.51;100.00;96287.66;5039009;28;20025;-77
2022/05/11 02:16:02;;;;;;;10.37;8.53;;;;;;;14.54;100.00;96287.31;5033934;28;20036;-78
2022/05/11 02:18:29;;;;;;;12.20;8.83;;;;;;;14.56;100.00;96290.59;5030434;28;20498;-77
2022/05/11 02:20:55;;;;;;;11.33;8.90;;;;;;;14.63;100.00;96283.56;5051325;28;20753;-77
2022/05/11 02:23:21;;;;;;;11.33;9.53;;;;;;;14.73;100.00;96289.41;5036573;28;20026;-77
2022/05/11 02:25:49;;;;;;;11.90;8.43;;;;;;;14.77;100.00;96285.38;5043836;28;20110;-77
2022/05/11 02:28:17;;;;;;;9.53;7.60;;;;;;;14.83;100.00;96284.63;5042958;28;20033;-77
2022/05/11 02:30:45;;;;;;;10.00;7.70;;;;;;;14.85;100.00;96285.28;5044665;28;20026;-77
2022/05/11 02:33:12;;;;;;;11.63;7.93;;;;;;;14.88;100.00;96291.19;5042321;28;20029;-78
2022/05/11 02:35:38;;;;;;;9.50;7.47;;;;;;;14.93;100.00;96284.34;5044289;28;20036;-77
2022/05/11 02:38:08;;;;;;;12.77;7.83;;;;;;;14.94;100.00;96286.00;5036735;28;20112;-77
2022/05/11 02:40:37;;;;;;;13.63;8.43;;;;;;;14.98;100.00;96281.16;5031581;28;20065;-77
2022/05/11 02:43:04;;;;;;;11.07;8.03;;;;;;;14.98;100.00;96284.59;5038033;28;20029;-77
2022/05/11 02:45:31;;;;;;;8.93;7.07;;;;;;;15.00;100.00;96285.25;5046141;28;20234;-77
2022/05/11 02:47:58;;;;;;;10.47;7.83;;;;;;;14.98;100.00;96284.59;5039590;28;20979;-77
2022/05/11 02:50:34;;;;;;;12.03;7.40;;;;;;;14.98;100.00;96281.16;5030062;28;20646;-77
2022/05/11 02:53:02;;;;;;;10.87;7.90;;;;;;;14.93;100.00;96288.84;5043124;28;20104;-78
2022/05/11 02:55:29;;;;;;;10.20;7.67;;;;;;;14.87;100.00;96281.63;5033933;28;20033;-78
2022/05/11 02:57:55;;;;;;;8.83;7.03;;;;;;;14.88;100.00;96280.59;5042851;28;20034;-77
2022/05/11 03:00:21;;;;;;;9.33;7.57;;;;;;;14.82;100.00;96282.16;5027612;28;20033;-77
2022/05/11 03:02:47;;;;;;;15.13;8.60;;;;;;;14.77;100.00;96274.78;5045617;28;20124;-77
2022/05/11 03:05:14;;;;;;;10.23;8.40;;;;;;;14.69;100.00;96284.63;5054334;28;20036;-77
2022/05/11 03:07:40;;;;;;;10.03;7.73;;;;;;;14.66;100.00;96285.84;5027445;28;20028;-77
2022/05/11 03:10:09;;;;;;;9.00;7.37;;;;;;;14.61;100.00;96283.72;5040204;28;20394;-77
2022/05/11 03:12:35;;;;;;;9.67;7.87;;;;;;;14.61;100.00;96293.50;5017829;28;20033;-78
2022/05/11 03:15:03;;;;;;;8.70;7.20;;;;;;;14.52;100.00;96286.66;5041331;28;20371;-77
2022/05/11 03:17:30;;;;;;;8.63;7.67;;;;;;;14.48;100.00;96288.81;5041432;28;20032;-77
2022/05/11 03:19:56;;;;;;;10.00;7.40;;;;;;;14.42;100.00;96283.41;5044585;28;20506;-77
2022/05/11 03:22:21;;;;;;;10.40;7.80;;;;;;;14.36;100.00;96288.44;5045192;28;20067;-77
2022/05/11 03:24:47;;;;;;;10.80;8.33;;;;;;;14.27;100.00;96283.41;5039649;28;20402;-77
2022/05/11 03:27:13;;;;;;;10.93;8.30;;;;;;;14.31;100.00;96282.88;5028552;28;20393;-77
2022/05/11 03:29:38;;;;;;;12.20;8.57;;;;;;;14.30;100.00;96278.59;5043546;28;20411;-77
2022/05/11 03:34:49;;;;;;;10.33;7.93;;;;;;;14.33;100.00;96280.88;5051120;28;20032;-78
2022/05/11 03:37:17;;;;;;;10.03;7.87;;;;;;;14.33;100.00;96282.69;5042207;28;20021;-77
2022/05/11 03:39:43;;;;;;;11.80;8.70;;;;;;;14.36;100.00;96282.34;5042760;28;20041;-77
2022/05/11 03:42:15;;;;;;;14.73;8.77;;;;;;;14.28;100.00;96280.59;5037085;28;20102;-77
2022/05/11 03:44:41;;;;;;;12.57;8.27;;;;;;;14.30;100.00;96278.59;5045297;28;20029;-77
2022/05/11 03:47:07;;;;;;;12.43;8.37;;;;;;;14.26;100.00;96279.97;5019264;28;20030;-78
2022/05/11 03:49:33;;;;;;;10.20;9.10;;;;;;;14.25;100.00;96278.31;5017343;28;20550;-77
2022/05/11 03:51:59;;;;;;;10.83;9.13;;;;;;;14.23;100.00;96280.31;5010517;28;20391;-77
2022/05/11 03:54:25;;;;;;;10.93;8.23;;;;;;;14.13;100.00;96267.34;5047376;28;20068;-77
2022/05/11 03:56:51;;;;;;;10.30;8.87;;;;;;;14.04;100.00;96265.78;5043632;28;20061;-77
2022/05/11 03:59:17;;;;;;;11.07;9.07;;;;;;;14.05;100.00;96269.25;5037204;28;20048;-78
2022/05/11 04:01:42;;;;;;;10.90;8.70;;;;;;;14.02;100.00;96267.00;5043633;28;20076;-77
2022/05/11 04:04:08;;;;;;;13.67;9.80;;;;;;;14.06;100.00;96266.44;5024563;28;20040;-77
2022/05/11 04:06:34;;;;;;;10.43;8.57;;;;;;;14.06;100.00;96265.63;5027496;28;20025;-78
2022/05/11 04:09:00;;;;;;;10.23;8.47;;;;;;;14.02;100.00;96269.63;5036829;28;20036;-77
2022/05/11 04:11:26;;;;;;;12.20;8.67;;;;;;;14.03;100.00;96281.84;5036337;28;20087;-78
2022/05/11 04:13:53;;;;;;;11.87;9.00;;;;;;;14.04;100.00;96273.72;5027886;28;20037;-77
2022/05/11 04:16:20;;;;;;;12.77;8.97;;;;;;;14.09;100.00;96270.56;5035458;28;20442;-77
2022/05/11 04:18:46;;;;;;;10.93;8.40;;;;;;;14.12;100.00;96272.84;5014356;28;20073;-76
2022/05/11 04:21:12;;;;;;;10.60;8.97;;;;;;;14.17;100.00;96272.28;5040465;28;20033;-78
2022/05/11 04:23:41;;;;;;;12.37;9.20;;;;;;;14.17;100.00;96278.38;5025041;28;20026;-76
2022/05/11 04:26:08;;;;;;;11.30;8.13;;;;;;;14.20;100.00;96278.03;5007648;28;20033;-77
2022/05/11 04:28:34;;;;;;;10.50;8.47;;;;;;;14.29;100.00;96276.13;5036942;28;20033;-76
2022/05/11 04:31:25;;;;;;;9.70;7.57;;;;;;;14.32;100.00;96278.44;5035047;28;20474;-78
2022/05/11 04:35:01;;;;;;;10.63;7.70;;;;;;;14.36;100.00;96277.06;5049208;28;20048;-77
2022/05/11 04:38:27;;;;;;;10.60;7.90;;;;;;;14.44;100.00;96284.06;5038433;28;20051;-78
2022/05/11 04:41:16;;;;;;;10.43;7.40;;;;;;;14.41;100.00;96281.78;5033818;28;20038;-78
2022/05/11 04:43:42;;;;;;;11.63;7.47;;;;;;;14.46;100.00;96287.38;5045931;28;20025;-78
2022/05/11 04:46:08;;;;;;;10.43;7.93;;;;;;;14.44;100.00;96278.78;5049335;28;20094;-78
2022/05/11 04:48:34;;;;;;;11.37;8.37;;;;;;;14.44;100.00;96284.88;5040774;28;20114;-78
2022/05/11 04:51:01;;;;;;;13.47;8.37;;;;;;;14.41;100.00;96290.53;5039526;28;20915;-78
2022/05/11 04:53:28;;;;;;;10.17;8.63;;;;;;;14.52;100.00;96287.50;5023941;28;20033;-78
2022/05/11 04:55:54;;;;;;;12.83;8.60;;;;;;;14.59;100.00;96287.59;5035356;28;20052;-78
2022/05/11 04:58:19;;;;;;;11.37;8.60;;;;;;;14.63;100.00;96286.22;5032573;28;20040;-78
2022/05/11 05:00:45;;;;;;;14.70;8.97;;;;;;;14.76;100.00;96289.03;5041502;28;20042;-78
2022/05/11 05:03:13;;;;;;;14.63;8.23;;;;;;;14.77;100.00;96289.84;5033228;28;20060;-78
2022/05/11 05:05:39;;;;;;;13.63;8.27;;;;;;;14.90;100.00;96276.78;5042929;28;20034;-78
2022/05/11 05:08:06;;;;;;;8.73;7.47;;;;;;;15.03;100.00;96290.19;5017063;28;20092;-78
2022/05/11 05:10:33;;;;;;;11.20;7.47;;;;;;;15.19;100.00;96283.84;5029241;28;20041;-80
2022/05/11 05:13:04;;;;;;;11.23;7.90;;;;;;;15.46;100.00;96284.97;5025261;28;20030;-81
2022/05/11 05:15:31;;;;;;;10.17;7.63;;;;;;;15.52;100.00;96291.31;5027378;28;20039;-77
2022/05/11 05:18:07;;;;;;;12.93;8.50;;;;;;;15.67;100.00;96283.34;5037216;28;20033;-78
2022/05/11 05:20:35;;;;;;;11.80;7.53;;;;;;;15.77;100.00;96282.00;5029229;28;20025;-78
2022/05/11 05:23:01;;;;;;;12.57;9.00;;;;;;;15.82;100.00;96283.25;5040219;28;20099;-77
2022/05/11 05:25:27;;;;;;;12.73;8.13;;;;;;;15.94;100.00;96287.06;5018544;28;20407;-78
2022/05/11 05:31:04;;;;;;;11.47;8.07;;;;;;;15.89;100.00;96284.13;5041288;28;20033;-78
2022/05/11 05:33:26;;;;;;;16.77;9.90;;;;;;;15.88;100.00;96280.66;5034027;28;20036;-78
2022/05/11 05:35:51;;;;;;;14.83;9.73;;;;;;;16.25;100.00;96276.88;5034887;28;20040;-78
2022/05/11 05:38:17;;;;;;;16.90;9.83;;;;;;;16.44;100.00;96287.84;5039973;28;20029;-78
2022/05/11 05:40:43;;;;;;;13.30;9.43;;;;;;;16.37;100.00;96290.44;5048827;28;20064;-78
2022/05/11 05:43:08;;;;;;;15.03;8.47;;;;;;;16.45;100.00;96292.13;5043526;28;20034;-78
2022/05/11 05:45:34;;;;;;;17.85;9.10;;;;;;;16.68;100.00;96291.84;5047219;28;20032;-78
2022/05/11 05:48:00;;;;;;;10.95;8.57;;;;;;;16.91;100.00;96295.06;5033719;28;20063;-78
2022/05/11 05:50:25;;;;;;;11.80;7.00;;;;;;;17.29;100.00;96291.13;5043563;28;20044;-78
2022/05/11 05:52:53;;;;;;;10.00;8.23;;;;;;;17.51;100.00;96289.16;5030826;28;20053;-78
2022/05/11 05:55:21;;;;;;;14.95;8.90;;;;;;;17.61;98.89;96285.06;5046927;28;20030;-78
2022/05/11 05:57:47;;;;;;;15.38;7.60;;;;;;;18.03;96.46;96290.25;5048025;28;20061;-78
2022/05/11 06:00:14;;;;;;;10.27;6.82;;;;;;;18.67;90.17;96286.91;5049735;28;20029;-78
2022/05/11 06:02:39;;;;;;;9.30;6.22;;;;;;;18.93;87.72;96286.03;5023143;28;20033;-79
2022/05/11 06:05:06;;;;;;;10.13;6.63;;;;;;;19.14;86.79;96292.94;5036314;28;20045;-79
2022/05/11 06:07:32;;;;;;;16.05;6.45;;;;;;;19.21;86.62;96290.22;5029658;28;20442;-79
2022/05/11 06:09:57;;;;;;;7.22;5.50;;;;;;;19.61;81.88;96290.03;5040413;28;20036;-79
2022/05/11 06:12:23;;;;;;;10.15;6.32;;;;;;;19.36;83.86;96287.31;5046257;28;20113;-79
2022/05/11 06:14:49;;;;;;;10.27;7.03;;;;;;;19.56;85.10;96285.34;5026663;28;20092;-78
2022/05/11 06:17:20;;;;;;;8.95;6.38;;;;;;;20.02;83.38;96279.72;5045155;28;20032;-78
2022/05/11 06:19:46;;;;;;;10.25;5.60;;;;;;;20.17;80.21;96279.38;5037990;28;20041;-78
2022/05/11 06:22:13;;;;;;;7.45;5.60;;;;;;;20.10;80.80;96272.47;5041949;28;20064;-79
2022/05/11 06:24:38;;;;;;;8.82;5.55;;;;;;;20.71;77.83;96274.38;5041931;28;20033;-78
2022/05/11 06:27:05;;;;;;;7.30;5.75;;;;;;;20.76;72.44;96274.56;5043461;28;20082;-79
2022/05/11 06:29:31;;;;;;;6.93;4.97;;;;;;;21.14;71.69;96262.78;5041717;28;20036;-79
2022/05/11 06:31:57;;;;;;;6.45;5.03;;;;;;;21.35;70.60;96270.34;5041175;28;20022;-78
2022/05/11 06:34:24;;;;;;;11.85;5.10;;;;;;;21.67;68.91;96261.28;5032647;28;20068;-79
2022/05/11 06:36:50;;;;;;;6.30;4.45;;;;;;;21.67;66.66;96263.97;5042367;28;20064;-79
2022/05/11 06:39:16;;;;;;;5.15;4.25;;;;;;;21.51;63.69;96263.56;5034714;28;20041;-79
2022/05/11 06:41:41;;;;;;;5.97;3.78;;;;;;;22.14;62.04;96262.19;5045907;28;20033;-79
2022/05/11 06:44:08;;;;;;;7.22;4.30;;;;;;;21.96;61.55;96259.59;5022094;28;20092;-78
2022/05/11 06:46:34;;;;;;;6.70;4.15;;;;;;;22.25;59.98;96261.41;5044356;28;20039;-79
2022/05/11 06:48:59;;;;;;;5.63;4.10;;;;;;;22.79;62.66;96263.94;5046722;28;20037;-79
2022/05/11 06:51:25;;;;;;;8.20;4.20;;;;;;;22.65;59.76;96263.38;5055989;28;20044;-79
2022/05/11 06:59:28;;;;;;;8.07;4.10;;;;;;;22.86;57.98;96269.19;5044181;28;20487;-79
2022/05/11 07:01:57;;;;;;;5.32;4.00;;;;;;;22.87;56.96;96260.91;5051485;28;20037;-79
2022/05/11 07:04:24;;;;;;;6.93;4.05;;;;;;;23.57;58.19;96265.25;5053064;28;20364;-78
2022/05/11 07:06:53;;;;;;;5.57;3.33;;;;;;;23.62;54.63;96267.22;5035629;28;20038;-79
2022/05/11 07:09:24;;;;;;;5.63;3.47;;;;;;;23.75;54.13;96262.41;5044213;28;20029;-79
2022/05/11 07:14:36;;;;;;;9.15;3.92;;;;;;;23.84;52.13;96259.31;5048515;28;20108;-79
2022/05/11 07:17:03;;;;;;;5.35;3.53;;;;;;;24.12;52.71;96261.13;5052691;28;20056;-79
2022/05/11 07:19:28;;;;;;;6.15;3.80;;;;;;;23.85;52.98;96260.97;5041615;28;20087;-80
2022/05/11 07:21:54;;;;;;;5.93;4.00;;;;;;;24.57;50.41;96252.97;5041848;28;20089;-81
2022/05/11 07:24:20;;;;;;;5.32;3.22;;;;;;;24.16;50.71;96244.28;5034052;28;20100;-79
2022/05/11 07:26:47;;;;;;;7.03;4.25;;;;;;;24.45;51.45;96257.66;5045603;28;20099;-80
2022/05/11 07:29:14;;;;;;;6.63;3.42;;;;;;;24.70;49.35;96249.94;5028568;28;20026;-80
2022/05/11 07:31:41;;;;;;;5.85;3.90;;;;;;;25.23;49.04;96250.34;5037418;28;20025;-80
2022/05/11 07:34:07;;;;;;;5.35;3.95;;;;;;;25.39;48.22;96254.03;5028290;28;20089;-79
2022/05/11 07:36:32;;;;;;;6.30;4.10;;;;;;;24.92;50.00;96254.53;5046152;28;20116;-79
2022/05/11 07:38:58;;;;;;;7.40;3.60;;;;;;;25.23;47.24;96249.53;5039297;28;20036;-79
2022/05/11 07:41:24;;;;;;;5.05;3.65;;;;;;;24.91;48.34;96255.56;5030621;28;20014;-79
2022/05/11 07:43:50;;;;;;;7.65;4.28;;;;;;;25.27;47.26;96246.09;5035914;28;20075;-80
2022/05/11 07:46:16;;;;;;;6.20;3.70;;;;;;;25.39;46.87;96251.34;5034752;28;20061;-80
2022/05/11 07:48:42;;;;;;;4.70;3.30;;;;;;;25.07;46.69;96253.91;5024832;28;20052;-80
2022/05/11 07:51:08;;;;;;;5.18;3.70;;;;;;;24.81;47.52;96258.13;5046164;28;20075;-80
2022/05/11 07:53:34;;;;;;;4.68;3.58;;;;;;;25.79;46.44;96247.44;5035991;28;20111;-80
2022/05/11 08:01:28;;;;;;;7.10;3.30;;;;;;;25.17;46.32;96252.16;5046107;28;20030;-79
2022/05/11 08:03:54;;;;;;;5.40;3.35;;;;;;;25.51;46.55;96254.69;5031497;28;20158;-79
2022/05/11 08:06:20;;;;;;;5.85;3.67;;;;;;;25.31;44.81;96244.50;5050017;28;20025;-79
2022/05/11 08:08:46;;;;;;;4.68;3.30;;;;;;;25.65;44.90;96247.00;5032485;28;20053;-79
2022/05/11 08:11:12;;;;;;;8.02;3.65;;;;;;;25.61;43.58;96245.91;5055600;28;20026;-79
2022/05/11 08:13:38;;;;;;;5.07;3.42;;;;;;;25.80;43.12;96244.50;5041608;28;20033;-79
2022/05/11 08:16:04;;;;;;;3.65;2.90;;;;;;;25.68;42.39;96245.69;5046070;28;20350;-79
2022/05/11 08:18:30;;;;;;;5.40;3.28;;;;;;;26.08;43.26;96238.00;5027978;28;20041;-79
2022/05/11 08:20:55;;;;;;;4.57;2.63;;;;;;;27.17;42.50;96243.03;5045097;28;20066;-79
2022/05/11 08:23:21;;;;;;;5.32;3.20;;;;;;;27.00;41.60;96238.63;5039740;28;20037;-79
2022/05/11 08:25:49;;;;;;;5.72;3.22;;;;;;;27.23;40.82;96233.84;5054544;28;20068;-79
2022/05/11 08:28:17;;;;;;;4.50;2.90;;;;;;;27.29;39.50;96231.97;5030814;28;20053;-79
2022/05/11 08:33:31;;;;;;;4.20;2.90;;;;;;;27.11;39.07;96228.66;5047883;28;20025;-79
2022/05/11 08:36:23;;;;;;;4.82;2.97;;;;;;;27.18;39.00;96231.94;5043802;28;20068;-79
2022/05/11 08:38:55;;;;;;;3.60;2.65;;;;;;;27.10;38.56;96234.34;5047775;28;20056;-78
2022/05/11 08:41:32;;;;;;;5.47;2.90;;;;;;;27.10;38.96;96237.03;5025677;28;20037;-79
2022/05/11 08:44:00;;;;;;;3.97;2.67;;;;;;;27.16;38.40;96235.97;5024673;28;20157;-79
2022/05/11 08:46:51;;;;;;;4.45;2.90;;;;;;;27.59;37.94;96240.16;5055520;28;20030;-79
2022/05/11 08:49:37;;;;;;;3.92;2.60;;;;;;;27.04;37.34;96234.31;5034698;28;20037;-79
2022/05/11 08:52:05;;;;;;;4.13;2.67;;;;;;;27.29;37.53;96227.41;5045000;28;20028;-79
2022/05/11 08:54:46;;;;;;;4.53;2.75;;;;;;;27.20;37.23;96235.22;5026000;28;20101;-79
2022/05/11 08:57:19;;;;;;;5.15;2.72;;;;;;;27.93;37.18;96227.00;5036008;28;20429;-79
2022/05/11 08:59:46;;;;;;;3.55;2.33;;;;;;;27.94;37.24;96223.22;5048835;28;20037;-79
2022/05/11 09:02:17;;;;;;;4.80;2.92;;;;;;;27.77;35.41;96236.19;5043360;28;20017;-79
2022/05/11 09:04:56;;;;;;;4.10;2.42;;;;;;;27.84;35.85;96225.13;5050738;28;20037;-79
2022/05/11 09:07:22;;;;;;;6.45;2.65;;;;;;;27.72;36.12;96234.25;5040923;28;20034;-80
2022/05/11 09:09:51;;;;;;;6.18;2.55;;;;;;;28.73;35.25;96223.69;5048377;28;20033;-79
2022/05/11 09:12:17;;;;;;;3.75;2.20;;;;;;;28.56;34.01;96223.19;5047049;28;20044;-79
2022/05/11 09:14:49;;;;;;;5.82;2.70;;;;;;;28.86;34.51;96216.88;5039921;28;20034;-79
2022/05/11 09:17:37;;;;;;;4.10;2.30;;;;;;;29.24;33.22;96218.13;5041852;28;20025;-79
2022/05/11 09:20:05;;;;;;;3.15;2.22;;;;;;;28.97;33.43;96223.06;5041446;28;20041;-79
2022/05/11 09:22:34;;;;;;;4.82;2.67;;;;;;;28.96;33.22;96218.75;5040068;28;20109;-79
2022/05/11 09:25:08;;;;;;;4.97;2.25;;;;;;;29.02;33.50;96217.66;5045657;28;20025;-79
2022/05/11 09:27:36;;;;;;;4.03;2.70;;;;;;;29.35;34.50;96227.00;5053870;28;20033;-79
2022/05/11 09:30:24;;;;;;;3.17;2.13;;;;;;;29.41;32.70;96223.16;5056567;28;20029;-80
2022/05/11 09:33:11;;;;;;;6.80;2.60;;;;;;;29.36;31.96;96215.88;5039534;28;20042;-79
2022/05/11 09:35:37;;;;;;;4.75;2.20;;;;;;;29.48;32.45;96212.03;5029593;28;20030;-79
2022/05/11 09:38:19;;;;;;;4.10;2.80;;;;;;;28.71;32.88;96209.63;5049703;28;20036;-79
2022/05/11 09:40:50;;;;;;;6.85;2.78;;;;;;;28.78;33.33;96210.16;5035911;28;20471;-79
2022/05/11 09:43:29;;;;;;;4.43;2.57;;;;;;;29.79;32.23;96218.88;5053648;28;20041;-79
2022/05/11 09:45:55;;;;;;;4.82;2.72;;;;;;;29.82;31.96;96210.19;5055619;28;20463;-79
2022/05/11 09:48:33;;;;;;;3.92;2.25;;;;;;;29.15;31.18;96213.56;5054563;28;20029;-79
2022/05/11 09:51:19;;;;;;;4.70;2.60;;;;;;;29.61;31.00;96208.69;5034899;28;20057;-79
2022/05/11 09:54:23;;;;;;;4.90;2.50;;;;;;;29.48;31.46;96199.28;5055474;28;20510;-79
2022/05/11 09:56:49;;;;;;;3.47;2.20;;;;;;;29.60;31.78;96198.94;5042387;28;20066;-79
2022/05/11 09:59:40;;;;;;;4.60;2.38;;;;;;;29.17;32.04;96200.53;5052554;28;20033;-79
2022/05/11 10:02:08;;;;;;;13.48;2.95;;;;;;;29.11;31.90;96203.28;5040594;28;20160;-79
2022/05/11 10:04:54;;;;;;;5.40;2.33;;;;;;;29.51;31.36;96196.03;5051198;28;20013;-79
2022/05/11 10:07:20;;;;;;;4.82;2.70;;;;;;;29.81;31.02;96189.59;5028703;28;20026;-79
2022/05/11 10:09:52;;;;;;;5.03;2.50;;;;;;;29.86;31.65;96193.34;5051213;28;20053;-78
2022/05/11 10:12:24;;;;;;;4.72;2.47;;;;;;;29.11;31.40;96202.47;5050665;28;20032;-78
2022/05/11 10:23:20;;;;;;;3.38;2.10;;;;;;;29.07;30.87;96195.97;5038767;28;20044;-79
2022/05/11 10:26:08;;;;;;;4.60;2.33;;;;;;;29.28;30.51;96186.66;5039316;28;20045;-79
2022/05/11 10:29:01;;;;;;;3.42;2.13;;;;;;;29.77;31.29;96196.66;5044377;28;20037;-79
2022/05/11 10:31:48;;;;;;;;;;;;;;;29.16;30.88;96182.66;5038502;28;20059;-80
2022/05/11 10:34:20;;;;;;;4.50;2.38;;;;;;;29.79;31.01;96175.50;5027470;28;19920;-80
2022/05/11 10:37:03;;;;;;;4.43;2.25;;;;;;;29.10;31.26;96173.75;5035749;28;20044;-80
2022/05/11 10:39:45;;;;;;;5.57;2.40;;;;;;;29.84;30.98;96170.03;5035020;28;20037;-80
2022/05/11 10:42:29;;;;;;;5.57;2.78;;;;;;;29.88;31.32;96164.03;5042529;28;20074;-79
2022/05/11 10:45:21;;;;;;;4.35;2.60;;;;;;;29.73;31.79;96165.00;5051545;28;20063;-80
2022/05/11 10:48:05;;;;;;;5.80;2.30;;;;;;;29.20;31.28;96162.06;5052697;28;20037;-80
2022/05/11 10:50:31;;;;;;;4.15;2.28;;;;;;;29.70;31.71;96152.00;5023015;28;20038;-80
2022/05/11 10:53:18;;;;;;;3.90;2.33;;;;;;;29.80;31.36;96155.44;5044826;28;20058;-80
2022/05/11 10:56:00;;;;;;;5.22;2.58;;;;;;;29.99;30.98;96149.31;5046126;28;20033;-80
2022/05/11 10:58:38;;;;;;;5.20;2.63;;;;;;;30.05;31.25;96150.91;5040914;28;20033;-80
2022/05/11 11:01:13;;;;;;;3.63;2.33;;;;;;;28.99;31.73;96145.91;5028031;28;20043;-80
2022/05/11 11:04:19;;;;;;;5.03;2.53;;;;;;;29.93;31.26;96147.75;5030912;28;20036;-80
2022/05/11 11:07:15;;;;;;;6.00;2.60;;;;;;;30.43;31.26;96145.66;5052067;28;20040;-80
2022/05/11 11:10:19;;;;;;;3.63;2.65;;;;;;;30.19;31.05;96141.03;5025607;28;20037;-80
2022/05/11 11:13:00;;;;;;;4.38;2.90;;;;;;;30.29;30.71;96129.25;4991512;28;20077;-80
2022/05/11 11:15:29;;;;;;;7.18;2.83;;;;;;;30.58;31.64;96134.63;5048973;28;20043;-80
2022/05/11 11:17:56;;;;;;;4.80;2.70;;;;;;;30.19;30.88;96130.16;5037420;28;20697;-81
2022/05/11 11:20:23;;;;;;;4.75;2.63;;;;;;;30.95;30.45;96124.97;5034552;28;20025;-80
2022/05/11 11:23:17;;;;;;;4.45;2.70;;;;;;;30.91;31.85;96113.88;5044612;28;20037;-80
2022/05/11 11:25:57;;;;;;;7.70;3.38;;;;;;;30.11;32.29;96114.47;5033545;28;20053;-81
2022/05/11 11:28:28;;;;;;;6.30;3.25;;;;;;;29.82;31.83;96109.88;5044303;28;20041;-80
2022/05/11 11:30:59;;;;;;;5.90;2.97;;;;;;;30.15;31.67;96106.56;5013911;28;20026;-80
2022/05/11 11:33:28;;;;;;;9.80;3.17;;;;;;;29.84;31.97;96104.97;5043044;28;20033;-81
2022/05/11 11:35:56;;;;;;;4.97;3.08;;;;;;;30.40;31.15;96105.53;5042679;28;20777;-80
2022/05/11 11:38:24;;;;;;;4.65;2.70;;;;;;;30.76;30.16;96101.31;5034776;28;20083;-80
2022/05/11 11:48:27;;;;;;;5.90;2.83;;;;;;;29.91;30.97;96093.00;5039398;28;20059;-79
2022/05/11 11:50:58;;;;;;;7.78;3.17;;;;;;;30.35;30.96;96090.13;5046010;28;20033;-81
2022/05/11 11:53:36;;;;;;;6.13;2.50;;;;;;;31.08;30.17;96083.50;5021897;28;20041;-80
2022/05/11 11:56:24;;;;;;;7.22;2.72;;;;;;;30.61;30.37;96081.66;5043951;28;20076;-80
2022/05/11 11:59:11;;;;;;;4.90;3.15;;;;;;;30.94;29.98;96080.69;5042381;28;20029;-80
2022/05/11 12:01:46;;;;;;;4.72;3.28;;;;;;;30.64;30.03;96076.47;5037440;28;20028;-80
2022/05/11 12:04:27;;;;;;;5.80;2.90;;;;;;;30.79;29.80;96074.69;5023456;28;20076;-81
2022/05/11 12:15:23;;;;;;;4.68;2.88;;;;;;;30.85;29.23;96060.75;5040751;28;20041;-78
2022/05/11 12:17:49;;;;;;;5.57;2.90;;;;;;;30.98;28.25;96059.19;5039629;28;20037;-78
2022/05/11 12:20:20;;;;;;;4.55;3.15;;;;;;;30.73;29.08;96058.44;5047498;28;20021;-78
2022/05/11 12:22:57;;;;;;;5.30;3.22;;;;;;;30.92;28.05;96055.78;5020105;28;20088;-78
2022/05/11 12:25:29;;;;;;;5.78;3.25;;;;;;;31.06;29.35;96042.25;5016186;28;20052;-78
2022/05/11 12:27:57;;;;;;;5.07;2.85;;;;;;;30.81;29.02;96045.34;5029110;28;20056;-78
2022/05/11 12:30:23;;;;;;;3.92;2.75;;;;;;;30.52;28.43;96040.81;5019931;28;20041;-78
2022/05/11 12:33:01;;;;;;;7.40;2.92;;;;;;;30.58;29.05;96036.91;5036274;28;20047;-78